createdAt,value
2022-12-05T00:01:41.001Z,33.20
2022-12-05T00:04:14.671Z,33.78
2022-12-05T00:06:43.896Z,32.92
2022-12-05T00:09:13.269Z,31.52
2022-12-05T00:11:42.924Z,31.00
2022-12-05T00:14:11.116Z,30.85
2022-12-05T00:16:41.771Z,33.88
2022-12-05T00:19:12.484Z,33.63
2022-12-05T00:21:39.333Z,32.25
2022-12-05T00:24:08.379Z,32.58
2022-12-05T00:26:35.881Z,33.00
2022-12-05T00:29:03.249Z,30.70
2022-12-05T00:31:30.234Z,31.85
2022-12-05T00:34:00.417Z,31.35
2022-12-05T00:36:31.411Z,31.23
2022-12-05T00:39:10.103Z,32.70
2022-12-05T00:41:37.870Z,30.88
2022-12-05T00:44:05.242Z,30.80
2022-12-05T00:46:34.059Z,30.88
2022-12-05T00:49:04.120Z,32.17
2022-12-05T00:51:39.460Z,30.10
2022-12-05T00:54:11.143Z,30.67
2022-12-05T00:56:38.818Z,31.17
2022-12-05T00:59:06.988Z,30.02
2022-12-05T01:01:40.286Z,29.98
2022-12-05T01:04:12.104Z,31.20
2022-12-05T01:06:39.322Z,28.83
2022-12-05T01:09:07.466Z,29.88
2022-12-05T01:11:40.724Z,28.33
2022-12-05T01:14:09.949Z,28.65
2022-12-05T01:16:39.505Z,29.73
2022-12-05T01:19:14.038Z,29.20
2022-12-05T01:21:41.696Z,29.48
2022-12-05T01:24:09.998Z,29.08
2022-12-05T01:26:37.419Z,29.17
2022-12-05T01:29:04.660Z,27.58
2022-12-05T01:31:35.470Z,29.05
2022-12-05T01:34:06.245Z,28.75
2022-12-05T01:36:33.800Z,29.20
2022-12-05T01:39:00.847Z,28.92
2022-12-05T01:41:32.425Z,27.42
2022-12-05T01:44:07.280Z,29.35
2022-12-05T01:46:49.399Z,28.38
2022-12-05T01:49:40.032Z,27.73
2022-12-05T01:52:33.721Z,26.65
2022-12-05T01:55:09.395Z,27.83
2022-12-05T01:57:36.852Z,25.63
2022-12-05T02:00:12.627Z,26.90
2022-12-05T02:02:48.139Z,26.65
2022-12-05T02:05:30.259Z,26.25
2022-12-05T02:07:59.664Z,27.08
2022-12-05T02:10:28.599Z,27.88
2022-12-05T02:12:56.769Z,26.52
2022-12-05T02:15:45.651Z,28.52
2022-12-05T02:18:36.305Z,27.85
2022-12-05T02:21:30.378Z,27.35
2022-12-05T02:24:46.438Z,26.40
2022-12-05T02:27:56.918Z,25.20
2022-12-05T02:30:25.155Z,26.65
2022-12-05T02:33:24.700Z,24.50
2022-12-05T02:36:13.392Z,24.10
2022-12-05T02:38:59.413Z,24.75
2022-12-05T02:41:41.268Z,26.45
2022-12-05T02:44:30.852Z,25.13
2022-12-05T02:47:00.152Z,25.77
2022-12-05T02:49:32.809Z,24.75
2022-12-05T02:52:03.733Z,25.45
2022-12-05T02:54:37.871Z,23.85
2022-12-05T02:59:31.873Z,21.73
2022-12-05T03:01:58.644Z,23.45
2022-12-05T03:04:26.624Z,22.38
2022-12-05T03:07:01.048Z,25.08
2022-12-05T03:09:37.855Z,25.17
2022-12-05T03:12:23.500Z,23.88
2022-12-05T03:14:57.602Z,23.27
2022-12-05T03:20:15.096Z,21.73
2022-12-05T03:22:54.685Z,22.30
2022-12-05T03:25:26.307Z,23.52
2022-12-05T03:28:07.353Z,23.88
2022-12-05T03:30:38.212Z,24.33
2022-12-05T03:33:15.558Z,23.75
2022-12-05T03:35:47.466Z,23.35
2022-12-05T03:38:28.505Z,22.90
2022-12-05T03:41:16.896Z,21.10
2022-12-05T03:43:54.655Z,21.52
2022-12-05T03:47:00.433Z,21.50
2022-12-05T03:49:51.473Z,20.80
2022-12-05T03:53:11.278Z,21.20
2022-12-05T03:55:35.963Z,20.73
2022-12-05T03:58:21.729Z,19.83
2022-12-05T04:00:51.324Z,21.10
2022-12-05T04:03:38.944Z,19.73
2022-12-05T04:06:32.023Z,20.45
2022-12-05T04:09:04.881Z,19.40
2022-12-05T04:11:36.630Z,21.52
2022-12-05T04:14:12.856Z,20.10
2022-12-05T04:17:03.373Z,21.50
2022-12-05T04:20:05.612Z,21.13
2022-12-05T04:22:33.345Z,20.85
2022-12-05T04:25:20.857Z,19.92
2022-12-05T04:28:21.177Z,20.13
2022-12-05T04:31:05.769Z,20.13
2022-12-05T04:33:50.524Z,19.75
2022-12-05T04:36:25.947Z,19.58
2022-12-05T04:39:18.484Z,20.67
2022-12-05T04:42:02.866Z,18.50
2022-12-05T04:44:53.149Z,18.83
2022-12-05T04:47:25.129Z,18.55
2022-12-05T04:49:54.028Z,17.60
2022-12-05T04:52:22.046Z,18.35
2022-12-05T04:54:57.046Z,18.50
2022-12-05T04:57:31.383Z,17.73
2022-12-05T04:59:58.488Z,18.52
2022-12-05T05:02:47.027Z,18.10
2022-12-05T05:05:18.330Z,17.40
2022-12-05T05:07:55.147Z,18.67
2022-12-05T05:10:45.487Z,17.63
2022-12-05T05:13:12.232Z,17.02
2022-12-05T05:15:39.110Z,16.98
2022-12-05T05:18:05.970Z,17.55
2022-12-05T05:20:32.709Z,17.27
2022-12-05T05:22:59.480Z,17.27
2022-12-05T05:25:26.278Z,17.25
2022-12-05T05:27:55.599Z,16.90
2022-12-05T05:30:24.656Z,16.73
2022-12-05T05:32:51.675Z,17.92
2022-12-05T05:35:18.531Z,17.98
2022-12-05T05:37:45.397Z,17.17
2022-12-05T05:40:13.467Z,18.05
2022-12-05T05:42:48.854Z,17.45
2022-12-05T05:45:16.468Z,16.98
2022-12-05T05:47:43.612Z,16.25
2022-12-05T05:50:15.009Z,17.23
2022-12-05T05:52:44.789Z,17.25
2022-12-05T05:55:11.596Z,17.40
2022-12-05T05:57:38.355Z,17.75
2022-12-05T06:00:08.208Z,16.98
2022-12-05T06:02:36.380Z,15.65
2022-12-05T06:05:04.560Z,15.88
2022-12-05T06:07:31.598Z,15.55
2022-12-05T06:09:58.822Z,16.17
2022-12-05T06:12:25.771Z,16.42
2022-12-05T06:14:52.745Z,16.00
2022-12-05T06:17:19.572Z,15.80
2022-12-05T06:19:46.312Z,16.23
2022-12-05T06:22:13.464Z,16.58
2022-12-05T06:24:40.348Z,16.58
2022-12-05T06:27:07.266Z,16.20
2022-12-05T06:29:34.732Z,14.93
2022-12-05T06:32:01.954Z,14.63
2022-12-05T06:34:29.022Z,16.48
2022-12-05T06:36:55.838Z,15.90
2022-12-05T06:39:22.683Z,15.70
2022-12-05T06:41:49.556Z,15.00
2022-12-05T06:44:16.499Z,14.50
2022-12-05T06:46:43.263Z,15.43
2022-12-05T06:49:10.639Z,14.93
2022-12-05T06:51:37.827Z,15.93
2022-12-05T06:54:04.888Z,14.48
2022-12-05T06:56:31.668Z,16.70
2022-12-05T06:58:58.528Z,15.65
2022-12-05T07:01:39.194Z,16.30
2022-12-05T07:04:20.302Z,15.38
2022-12-05T07:06:50.978Z,15.23
2022-12-05T07:09:23.118Z,15.32
2022-12-05T07:11:50.946Z,15.68
2022-12-05T07:14:46.318Z,16.20
2022-12-05T07:17:05.257Z,16.17
2022-12-05T07:19:32.033Z,16.25
2022-12-05T07:21:58.865Z,16.27
2022-12-05T07:24:25.870Z,15.38
2022-12-05T07:26:52.637Z,16.08
2022-12-05T07:29:19.615Z,16.55
2022-12-05T07:31:46.459Z,16.23
2022-12-05T07:34:13.310Z,17.02
2022-12-05T07:36:40.108Z,15.63
2022-12-05T07:39:06.899Z,17.05
2022-12-05T07:41:34.963Z,16.20
2022-12-05T07:44:01.716Z,15.52
2022-12-05T07:46:29.499Z,16.58
2022-12-05T07:48:57.316Z,17.17
2022-12-05T07:51:24.139Z,16.70
2022-12-05T07:53:51.209Z,14.75
2022-12-05T07:56:18.616Z,15.77
2022-12-05T07:58:48.276Z,16.27
2022-12-05T08:01:21.339Z,16.08
2022-12-05T08:03:49.894Z,14.70
2022-12-05T08:06:21.662Z,15.43
2022-12-05T08:08:52.097Z,15.77
2022-12-05T08:11:23.440Z,15.73
2022-12-05T08:13:51.381Z,16.02
2022-12-05T08:16:22.317Z,16.52
2022-12-05T08:18:49.180Z,17.25
2022-12-05T08:21:19.236Z,16.15
2022-12-05T08:23:46.774Z,18.45
2022-12-05T08:26:18.175Z,17.45
2022-12-05T08:28:45.312Z,16.85
2022-12-05T08:31:18.111Z,17.38
2022-12-05T08:33:45.338Z,16.08
2022-12-05T08:36:15.413Z,15.80
2022-12-05T08:38:43.654Z,17.35
2022-12-05T08:41:14.202Z,15.75
2022-12-05T08:43:41.434Z,17.25
2022-12-05T08:46:08.639Z,17.52
2022-12-05T08:48:36.329Z,15.32
2022-12-05T08:51:11.548Z,15.45
2022-12-05T08:53:44.396Z,15.02
2022-12-05T08:56:12.070Z,16.05
2022-12-05T08:58:39.409Z,15.60
2022-12-05T09:01:18.873Z,16.63
2022-12-05T09:03:48.263Z,15.68
2022-12-05T09:06:22.844Z,16.15
2022-12-05T09:08:54.354Z,13.57
2022-12-05T09:11:27.802Z,14.52
2022-12-05T09:13:57.605Z,14.70
2022-12-05T09:16:35.133Z,14.38
2022-12-05T09:19:05.263Z,13.77
2022-12-05T09:21:32.555Z,13.70
2022-12-05T09:24:00.369Z,13.07
2022-12-05T09:26:29.967Z,12.60
2022-12-05T09:28:57.119Z,13.18
2022-12-05T09:31:27.382Z,13.48
2022-12-05T09:33:54.398Z,12.90
2022-12-05T09:36:27.883Z,12.65
2022-12-05T09:38:55.852Z,13.73
2022-12-05T09:41:56.292Z,12.60
2022-12-05T09:45:10.629Z,11.80
2022-12-05T09:48:10.480Z,11.82
2022-12-05T09:51:02.986Z,11.30
2022-12-05T09:53:42.671Z,11.43
2022-12-05T09:56:09.294Z,11.15
2022-12-05T09:58:44.773Z,13.23
2022-12-05T10:01:56.967Z,12.10
2022-12-05T10:04:44.925Z,11.75
2022-12-05T10:07:30.462Z,10.90
2022-12-05T10:10:34.316Z,12.60
2022-12-05T10:13:34.755Z,11.80
2022-12-05T10:16:26.239Z,10.88
2022-12-05T10:18:59.960Z,10.50
2022-12-05T10:21:45.223Z,9.52
2022-12-05T10:24:43.830Z,10.77
2022-12-05T10:27:29.690Z,10.90
2022-12-05T10:30:18.472Z,9.93
2022-12-05T10:32:57.792Z,10.48
2022-12-05T10:35:38.069Z,9.70
2022-12-05T10:38:11.487Z,10.07
2022-12-05T10:40:46.186Z,6.82
2022-12-05T10:43:18.363Z,11.02
2022-12-05T10:45:48.029Z,7.90
2022-12-05T10:48:18.263Z,9.85
2022-12-05T10:50:48.891Z,9.25
2022-12-05T10:53:29.127Z,9.07
2022-12-05T10:56:28.832Z,9.57
2022-12-05T10:58:56.597Z,9.93
2022-12-05T11:01:29.100Z,10.23
2022-12-05T11:04:21.007Z,10.10
2022-12-05T11:06:56.195Z,8.50
2022-12-05T11:09:47.151Z,8.68
2022-12-05T11:12:49.624Z,8.32
2022-12-05T11:15:24.238Z,9.95
2022-12-05T11:17:54.052Z,9.90
2022-12-05T11:20:20.700Z,9.43
2022-12-05T11:22:53.693Z,9.18
2022-12-05T11:25:35.685Z,9.75
2022-12-05T11:28:17.623Z,9.25
2022-12-05T11:31:14.570Z,9.55
2022-12-05T11:33:41.595Z,9.18
2022-12-05T11:36:37.613Z,8.90
2022-12-05T11:39:04.429Z,8.85
2022-12-05T11:42:07.094Z,9.77
2022-12-05T11:45:10.704Z,9.00
2022-12-05T11:48:11.255Z,8.77
2022-12-05T11:51:04.639Z,7.78
2022-12-05T11:54:42.064Z,7.65
2022-12-05T11:58:02.889Z,8.18
2022-12-05T12:00:50.648Z,7.68
2022-12-05T12:03:47.929Z,8.60
2022-12-05T12:06:46.654Z,7.63
2022-12-05T12:10:02.680Z,7.78
2022-12-05T12:12:44.903Z,7.30
2022-12-05T12:15:30.037Z,7.32
2022-12-05T12:18:23.833Z,7.10
2022-12-05T12:21:12.143Z,7.33
2022-12-05T12:23:56.993Z,7.88
2022-12-05T12:26:47.881Z,7.57
2022-12-05T12:29:37.957Z,7.85
2022-12-05T12:32:38.166Z,7.85
2022-12-05T12:35:27.916Z,7.70
2022-12-05T12:38:34.813Z,7.93
2022-12-05T12:41:33.999Z,7.30
2022-12-05T12:44:39.844Z,7.10
2022-12-05T12:47:39.852Z,6.68
2022-12-05T12:50:20.984Z,6.75
2022-12-05T12:53:29.099Z,7.07
2022-12-05T12:56:38.598Z,8.23
2022-12-05T12:59:48.168Z,8.10
2022-12-05T13:02:37.363Z,7.00
2022-12-05T13:05:32.744Z,7.50
2022-12-05T13:08:15.542Z,6.85
2022-12-05T13:10:45.960Z,7.13
2022-12-05T13:13:33.464Z,8.23
2022-12-05T13:16:07.663Z,7.45
2022-12-05T13:18:35.607Z,6.47
2022-12-05T13:21:08.341Z,7.32
2022-12-05T13:23:46.898Z,8.10
2022-12-05T13:26:14.824Z,7.90
2022-12-05T13:28:57.885Z,8.05
2022-12-05T13:31:42.189Z,8.13
2022-12-05T13:34:46.063Z,7.50
2022-12-05T13:37:38.742Z,7.53
2022-12-05T13:40:46.714Z,7.60
2022-12-05T13:43:19.147Z,7.35
2022-12-05T13:46:05.095Z,7.90
2022-12-05T13:48:36.697Z,7.68
2022-12-05T13:51:22.671Z,6.95
2022-12-05T13:54:00.996Z,7.07
2022-12-05T13:56:48.102Z,7.65
2022-12-05T14:00:09.035Z,7.40
2022-12-05T14:02:41.911Z,7.10
2022-12-05T14:05:14.614Z,7.13
2022-12-05T14:07:58.574Z,8.73
2022-12-05T14:10:28.971Z,11.23
2022-12-05T14:13:02.230Z,10.23
2022-12-05T14:15:42.961Z,9.43
2022-12-05T14:18:43.395Z,9.93
2022-12-05T14:21:18.426Z,8.60
2022-12-05T14:23:55.519Z,8.90
2022-12-05T14:27:18.772Z,8.50
2022-12-05T14:30:21.656Z,8.20
2022-12-05T14:32:50.184Z,8.30
2022-12-05T14:35:32.142Z,6.80
2022-12-05T14:38:04.807Z,7.22
2022-12-05T14:40:33.407Z,8.20
2022-12-05T14:43:03.098Z,8.30
2022-12-05T14:45:35.643Z,8.00
2022-12-05T14:48:30.615Z,8.55
2022-12-05T14:50:59.527Z,7.53
2022-12-05T14:53:31.993Z,8.07
2022-12-05T14:56:16.037Z,8.30
2022-12-05T14:59:07.754Z,7.97
2022-12-05T15:01:50.823Z,8.25
2022-12-05T15:04:22.261Z,8.18
2022-12-05T15:07:01.228Z,9.55
2022-12-05T15:09:41.839Z,7.82
2022-12-05T15:12:37.528Z,6.70
2022-12-05T15:15:38.730Z,7.63
2022-12-05T15:18:40.399Z,7.80
2022-12-05T15:21:19.017Z,8.63
2022-12-05T15:23:55.241Z,8.02
2022-12-05T15:26:48.294Z,8.00
2022-12-05T15:29:20.476Z,8.07
2022-12-05T15:31:49.611Z,7.13
2022-12-05T15:34:49.978Z,7.22
2022-12-05T15:37:34.826Z,6.28
2022-12-05T15:40:24.063Z,7.28
2022-12-05T15:42:56.104Z,7.25
2022-12-05T15:45:29.471Z,6.30
2022-12-05T15:48:12.371Z,7.15
2022-12-05T15:50:43.412Z,7.60
2022-12-05T15:53:35.820Z,8.45
2022-12-05T15:56:22.715Z,8.20
2022-12-05T15:59:10.953Z,8.20
2022-12-05T16:01:55.378Z,8.60
2022-12-05T16:07:01.229Z,7.10
2022-12-05T16:09:33.142Z,7.57
2022-12-05T16:12:14.940Z,7.65
2022-12-05T16:15:00.136Z,7.75
2022-12-05T16:17:45.685Z,8.15
2022-12-05T16:20:18.433Z,7.78
2022-12-05T16:22:51.560Z,8.75
2022-12-05T16:25:28.902Z,9.32
2022-12-05T16:28:18.044Z,8.75
2022-12-05T16:31:00.439Z,7.53
2022-12-05T16:33:29.888Z,8.48
2022-12-05T16:36:07.773Z,8.70
2022-12-05T16:38:34.781Z,8.90
2022-12-05T16:41:06.983Z,9.15
2022-12-05T16:43:33.655Z,8.45
2022-12-05T16:46:15.409Z,9.25
2022-12-05T16:48:48.472Z,9.85
2022-12-05T16:51:25.896Z,9.10
2022-12-05T16:53:54.958Z,10.63
2022-12-05T16:56:29.995Z,9.05
2022-12-05T16:58:57.623Z,8.80
2022-12-05T17:01:27.074Z,9.35
2022-12-05T17:03:55.311Z,10.05
2022-12-05T17:06:24.166Z,10.27
2022-12-05T17:08:52.365Z,10.43
2022-12-05T17:11:25.950Z,10.73
2022-12-05T17:13:54.881Z,9.90
2022-12-05T17:16:22.146Z,12.45
2022-12-05T17:18:48.945Z,11.00
2022-12-05T17:21:19.845Z,11.25
2022-12-05T17:23:48.432Z,11.18
2022-12-05T17:26:18.788Z,10.60
2022-12-05T17:28:45.890Z,10.63
2022-12-05T17:31:24.753Z,9.57
2022-12-05T17:33:53.785Z,10.23
2022-12-05T17:36:21.087Z,9.15
2022-12-05T17:38:48.812Z,8.90
2022-12-05T17:41:23.588Z,8.55
2022-12-05T17:43:51.607Z,10.45
2022-12-05T17:46:22.384Z,9.73
2022-12-05T17:48:50.801Z,15.23
2022-12-05T17:51:18.502Z,17.63
2022-12-05T17:53:45.661Z,16.30
2022-12-05T17:56:13.328Z,18.65
2022-12-05T17:58:40.815Z,18.60
2022-12-05T18:01:12.637Z,16.17
2022-12-05T18:03:39.531Z,15.98
2022-12-05T18:06:06.805Z,15.85
2022-12-05T18:08:34.097Z,15.98
2022-12-05T18:11:00.984Z,15.57
2022-12-05T18:13:27.738Z,13.90
2022-12-05T18:15:58.997Z,14.65
2022-12-05T18:18:29.166Z,12.35
2022-12-05T18:21:11.245Z,12.00
2022-12-05T18:23:40.158Z,11.18
2022-12-05T18:26:09.463Z,10.55
2022-12-05T18:28:38.377Z,11.43
2022-12-05T18:31:17.253Z,10.55
2022-12-05T18:33:45.666Z,10.77
2022-12-05T18:36:17.651Z,13.02
2022-12-05T18:38:51.187Z,11.38
2022-12-05T18:41:17.987Z,9.18
2022-12-05T18:43:44.754Z,11.15
2022-12-05T18:46:11.647Z,13.10
2022-12-05T18:48:40.763Z,13.60
2022-12-05T18:51:17.248Z,13.25
2022-12-05T18:53:51.593Z,13.02
2022-12-05T18:56:34.569Z,18.40
2022-12-05T18:59:05.109Z,51.00
2022-12-05T19:01:35.093Z,39.35
2022-12-05T19:04:04.064Z,26.13
2022-12-05T19:06:32.940Z,22.95
2022-12-05T19:09:04.069Z,17.35
2022-12-05T19:11:31.725Z,14.43
2022-12-05T19:14:01.953Z,14.32
2022-12-05T19:16:31.677Z,12.85
2022-12-05T19:19:02.900Z,12.20
2022-12-05T19:21:31.637Z,13.23
2022-12-05T19:23:59.296Z,15.23
2022-12-05T19:26:26.741Z,13.93
2022-12-05T19:28:53.913Z,13.35
2022-12-05T19:31:24.320Z,14.23
2022-12-05T19:33:55.078Z,13.48
2022-12-05T19:36:36.900Z,13.55
2022-12-05T19:39:30.378Z,13.25
2022-12-05T19:42:00.177Z,12.88
2022-12-05T19:44:27.944Z,14.05
2022-12-05T19:46:54.962Z,13.27
2022-12-05T19:49:23.039Z,12.88
2022-12-05T19:51:50.194Z,12.43
2022-12-05T19:54:17.799Z,12.57
2022-12-05T19:56:44.653Z,13.18
2022-12-05T19:59:16.160Z,12.85
2022-12-05T20:01:43.299Z,12.20
2022-12-05T20:04:14.583Z,12.43
2022-12-05T20:06:48.304Z,11.70
2022-12-05T20:09:19.501Z,11.07
2022-12-05T20:11:54.234Z,11.32
2022-12-05T20:14:24.173Z,11.50
2022-12-05T20:16:52.275Z,11.68
2022-12-05T20:19:19.109Z,11.48
2022-12-05T20:21:45.937Z,12.27
2022-12-05T20:24:12.790Z,11.00
2022-12-05T20:26:42.921Z,10.70
2022-12-05T20:29:10.813Z,10.07
2022-12-05T20:31:41.337Z,9.88
2022-12-05T20:34:11.770Z,10.07
2022-12-05T20:36:38.666Z,10.48
2022-12-05T20:39:10.515Z,11.07
2022-12-05T20:41:37.544Z,9.65
2022-12-05T20:44:07.247Z,10.35
2022-12-05T20:46:35.186Z,10.50
2022-12-05T20:49:02.113Z,9.90
2022-12-05T20:51:32.286Z,10.18
2022-12-05T20:54:01.353Z,9.30
2022-12-05T20:56:32.938Z,9.63
2022-12-05T20:59:03.514Z,9.63
2022-12-05T21:01:33.974Z,9.73
2022-12-05T21:04:01.982Z,10.40
2022-12-05T21:06:35.152Z,8.95
2022-12-05T21:09:04.945Z,9.73
2022-12-05T21:11:31.995Z,10.27
2022-12-05T21:14:00.545Z,9.73
2022-12-05T21:16:28.131Z,9.20
2022-12-05T21:18:55.958Z,9.38
2022-12-05T21:21:25.414Z,9.32
2022-12-05T21:23:58.095Z,9.10
2022-12-05T21:26:27.995Z,8.95
2022-12-05T21:28:55.019Z,8.85
2022-12-05T21:31:31.885Z,10.00
2022-12-05T21:34:03.006Z,9.32
2022-12-05T21:36:32.423Z,8.57
2022-12-05T21:38:59.754Z,8.75
2022-12-05T21:41:27.346Z,9.38
2022-12-05T21:43:55.769Z,8.02
2022-12-05T21:46:24.698Z,9.32
2022-12-05T21:48:51.897Z,8.32
2022-12-05T21:51:18.740Z,8.15
2022-12-05T21:53:45.502Z,7.85
2022-12-05T21:56:16.007Z,8.02
2022-12-05T21:58:44.907Z,8.65
2022-12-05T22:01:19.890Z,11.05
2022-12-05T22:03:47.601Z,7.72
2022-12-05T22:06:15.360Z,7.43
2022-12-05T22:08:43.025Z,7.13
2022-12-05T22:11:15.138Z,6.82
2022-12-05T22:13:44.113Z,7.00
2022-12-05T22:16:11.789Z,6.40
2022-12-05T22:18:38.867Z,7.70
2022-12-05T22:21:13.161Z,6.55
2022-12-05T22:23:40.049Z,6.82
2022-12-05T22:26:09.177Z,6.15
2022-12-05T22:28:37.176Z,7.03
2022-12-05T22:31:07.114Z,5.45
2022-12-05T22:33:36.553Z,6.30
2022-12-05T22:36:07.556Z,6.55
2022-12-05T22:38:40.554Z,6.57
2022-12-05T22:41:14.242Z,5.50
2022-12-05T22:43:42.294Z,5.30
2022-12-05T22:46:17.446Z,4.93
2022-12-05T22:48:45.112Z,5.60
2022-12-05T22:51:28.181Z,5.57
2022-12-05T22:53:55.249Z,6.35
2022-12-05T22:56:24.779Z,5.43
2022-12-05T22:58:58.189Z,6.18
2022-12-05T23:01:35.128Z,6.20
2022-12-05T23:04:08.343Z,5.97
2022-12-05T23:06:36.910Z,4.55
2022-12-05T23:09:06.799Z,6.07
2022-12-05T23:11:33.891Z,6.35
2022-12-05T23:14:02.218Z,6.45
2022-12-05T23:16:32.676Z,6.22
2022-12-05T23:19:04.879Z,6.93
2022-12-05T23:21:38.320Z,6.82
2022-12-05T23:24:11.491Z,6.88
2022-12-05T23:26:43.236Z,4.75
2022-12-05T23:29:12.267Z,6.18
2022-12-05T23:31:40.124Z,6.25
2022-12-05T23:34:07.472Z,6.50
2022-12-05T23:36:34.954Z,6.55
2022-12-05T23:39:02.262Z,6.47
2022-12-05T23:41:29.053Z,6.78
2022-12-05T23:43:56.770Z,6.50
2022-12-05T23:46:26.740Z,6.45
2022-12-05T23:48:55.016Z,6.25
2022-12-05T23:51:27.962Z,6.15
2022-12-05T23:54:00.580Z,5.70
2022-12-05T23:56:31.150Z,4.90
2022-12-05T23:58:58.504Z,4.80
